Inspiration — C6FM5 — position and weather

sailwx.info

Track history (hours):
 
Tides and Currents Weather Stations Pressure Air Temp Water Temp Dewpoint Dewpoint Depression Visibility Wind Speed Wind Dir Waves Ship Positions

Inspiration

Operator: Carnival Cruise Lines

Last reported at 2017-Mar-28 19:33 UTC. Time now 2017-Mar-28 19:47 UTC.
Position N 31°34' W 117°48'.

Type: Ship. MMSI: 309484000.

Date/timePositionNaut miles runAvg speedWind from/ knotsBaromVisibWave heightAir tempDewpointWater temp
2017-Mar-28 19:33N 31°34' W 117°48'8 7.5
2017-Mar-28 18:33N 31°38' W 117°40'7 7.3
2017-Mar-28 17:33N 31°42' W 117°33'9 6.9
2017-Mar-28 16:16N 31°47' W 117°25'5 7.2
2017-Mar-28 15:33N 31°52' W 117°25'8 7.7
2017-Mar-28 14:31N 31°60' W 117°28'7 7.5
2017-Mar-28 13:33N 32°07' W 117°30'7 7.2
2017-Mar-28 12:33N 32°14' W 117°33'7 7.3
2017-Mar-28 11:33N 32°21' W 117°36'8 7.6
2017-Mar-28 10:33N 32°28' W 117°39'8 7.6
2017-Mar-28 09:33N 32°35' W 117°42'8 7.9
2017-Mar-28 08:33N 32°42' W 117°46'8 7.8
2017-Mar-28 07:33N 32°49' W 117°49'8 7.6
2017-Mar-28 06:33N 32°56' W 117°53'8 7.8
2017-Mar-28 05:33N 33°04' W 117°56'8 7.7
2017-Mar-28 04:33N 33°10' W 118°00'9 8.9
2017-Mar-28 03:33N 33°18' W 118°05'1111.3
2017-Mar-28 02:33N 33°29' W 118°10'1111.2
2017-Mar-28 01:34N 33°40' W 118°12'5 5.0
2017-Mar-28 00:30N 33°45' W 118°11'0 0.0
2017-Mar-27 23:33N 33°45' W 118°11'0 0.0
2017-Mar-27 22:20N 33°45' W 118°11'0 0.0
2017-Mar-27 21:32N 33°45' W 118°11'0 0.0
2017-Mar-27 20:20N 33°45' W 118°11'0 0.0
2017-Mar-27 18:13N 33°45' W 118°11'0 0.0
2017-Mar-27 13:29N 33°45' W 118°11'0 0.1
2017-Mar-27 12:23N 33°45' W 118°11'5 5.4
2017-Mar-27 11:33N 33°40' W 118°11'9 9.2
2017-Mar-27 10:34N 33°32' W 118°08'1414.1
2017-Mar-27 09:33N 33°18' W 118°02'1616.4
2017-Mar-27 08:33N 33°03' W 117°56'1615.7
2017-Mar-27 07:33N 32°48' W 117°50'1515.0
2017-Mar-27 06:33N 32°34' W 117°44'1515.0
2017-Mar-27 05:33N 32°20' W 117°38'1514.7
2017-Mar-27 04:33N 32°09' W 117°27'22 0.6
2017-Mar-25 15:19N 31°53' W 117°45'6 7.0
2017-Mar-25 14:28N 31°55' W 117°38'6 7.1
2017-Mar-25 13:33N 31°57' W 117°31'6 6.4
2017-Mar-25 12:33N 32°03' W 117°30'7 7.4
2017-Mar-25 11:33N 32°10' W 117°33'7 7.4
2017-Mar-25 10:33N 32°17' W 117°36'8 7.6
2017-Mar-25 09:33N 32°24' W 117°40'8 7.5
2017-Mar-25 08:33N 32°31' W 117°43'1211.5
2017-Mar-25 07:33N 32°41' W 117°48'1111.4
2017-Mar-25 06:33N 32°52' W 117°53'1211.5
2017-Mar-25 05:33N 33°03' W 117°58'1211.6
2017-Mar-25 04:34N 33°13' W 118°03'1211.7
2017-Mar-25 03:33N 33°24' W 118°08'1211.6
2017-Mar-25 02:33N 33°35' W 118°13'9 9.4
2017-Mar-25 01:33N 33°44' W 118°11'1 0.7
2017-Mar-25 00:31N 33°45' W 118°11'0 0.0
2017-Mar-24 23:33N 33°45' W 118°11'0 0.0
2017-Mar-24 22:33N 33°45' W 118°11'0 0.0
2017-Mar-24 21:32N 33°45' W 118°11'0 0.0
2017-Mar-24 20:32N 33°45' W 118°11'0 0.0
2017-Mar-24 19:31N 33°45' W 118°11'0 0.0
2017-Mar-24 18:28N 33°45' W 118°11'0 0.0
2017-Mar-24 17:31N 33°45' W 118°11'0 0.0
2017-Mar-24 16:33N 33°45' W 118°11'0 0.0
2017-Mar-24 14:14N 33°45' W 118°11'0 0.0
2017-Mar-24 13:32N 33°45' W 118°11'0 0.3
2017-Mar-24 12:33N 33°45' W 118°11'8 7.8
2017-Mar-24 11:33N 33°37' W 118°10'1212.0
2017-Mar-24 10:33N 33°26' W 118°05'1312.7
2017-Mar-24 09:33N 33°14' W 118°01'1212.4
2017-Mar-24 08:33N 33°02' W 117°55'1615.8
2017-Mar-24 07:33N 32°47' W 117°49'1615.7
2017-Mar-24 06:33N 32°32' W 117°43'1515.4
2017-Mar-24 05:34N 32°18' W 117°37'1514.8
2017-Mar-24 04:33N 32°08' W 117°24'5 0.3
2017-Mar-23 09:33N 32°04' W 117°19'9 8.6
2017-Mar-23 08:33N 32°08' W 117°29'8 8.3
2017-Mar-23 07:33N 32°13' W 117°36'9 8.6
2017-Mar-23 06:33N 32°21' W 117°40'9 8.7
2017-Mar-23 05:33N 32°29' W 117°45'9 8.8
2017-Mar-23 04:33N 32°37' W 117°50'1010.3
2017-Mar-23 03:34N 32°46' W 117°55'1110.6
2017-Mar-23 02:33N 32°55' W 118°01'1110.6
2017-Mar-23 01:33N 33°05' W 118°06'1110.9
2017-Mar-23 00:33N 33°15' W 118°12'9 8.2
2017-Mar-22 23:31N 33°21' W 118°19'0 0.1
2017-Mar-22 22:31N 33°21' W 118°19'0 0.1
2017-Mar-22 21:30N 33°21' W 118°19'0 0.0
2017-Mar-22 20:33N 33°21' W 118°19'0 0.0
2017-Mar-22 19:24N 33°21' W 118°19'0 0.1
2017-Mar-22 18:29N 33°21' W 118°19'0 0.0
2017-Mar-22 17:23N 33°21' W 118°19'0 0.0
2017-Mar-22 15:22N 33°21' W 118°19'0 0.0
2017-Mar-22 14:33N 33°21' W 118°19'3 3.4
2017-Mar-22 13:33N 33°18' W 118°17'8 7.7
2017-Mar-22 12:33N 33°11' W 118°16'7 7.0
2017-Mar-22 11:33N 33°04' W 118°13'7 7.2
2017-Mar-22 10:33N 32°58' W 118°08'8 7.6
2017-Mar-22 09:33N 32°52' W 118°02'7 7.4
2017-Mar-22 08:33N 32°46' W 117°57'7 7.4
2017-Mar-22 07:33N 32°41' W 117°52'8 7.8
2017-Mar-22 06:33N 32°34' W 117°47'8 7.7
2017-Mar-22 05:33N 32°27' W 117°44'8 7.8
2017-Mar-22 04:33N 32°19' W 117°41'8 7.7
2017-Mar-22 03:33N 32°12' W 117°37'7 7.5
2017-Mar-22 02:33N 32°05' W 117°34'7 7.3
2017-Mar-22 01:33N 31°58' W 117°31'7 6.5
2017-Mar-22 00:33N 31°54' W 117°37'7 7.4
2017-Mar-21 23:33N 31°52' W 117°45'9 9.1
2017-Mar-21 22:32N 31°49' W 117°56'8 8.0
2017-Mar-21 21:33N 31°47' W 118°05'6 6.5
2017-Mar-21 20:33N 31°42' W 118°10'8 7.6
2017-Mar-21 19:33N 31°38' W 118°02'8 7.9
2017-Mar-21 18:33N 31°34' W 117°54'14 6.7
2017-Mar-21 16:32N 31°39' W 117°39'21 7.0
2017-Mar-21 13:33N 31°56' W 117°27'8 7.7
2017-Mar-21 12:33N 32°04' W 117°29'8 7.9
2017-Mar-21 11:33N 32°11' W 117°32'8 7.6
2017-Mar-21 10:33N 32°19' W 117°35'8 7.7
2017-Mar-21 09:33N 32°26' W 117°38'9 9.2
2017-Mar-21 08:33N 32°34' W 117°42'1110.8
2017-Mar-21 07:33N 32°44' W 117°47'1110.9
2017-Mar-21 06:33N 32°55' W 117°52'1111.0
2017-Mar-21 05:33N 33°05' W 117°57'1110.9
2017-Mar-21 04:34N 33°14' W 118°03'1110.5
2017-Mar-21 03:33N 33°24' W 118°08'1110.9
2017-Mar-21 02:33N 33°34' W 118°13'9 9.0
2017-Mar-21 01:33N 33°43' W 118°11'2 1.9
2017-Mar-21 00:28N 33°45' W 118°11'0 0.0
2017-Mar-20 23:16N 33°45' W 118°11'0 0.0
2017-Mar-20 21:33N 33°45' W 118°11'0 0.0
2017-Mar-20 20:27N 33°45' W 118°11'0 0.0
2017-Mar-20 19:08N 33°45' W 118°11'0 0.0
2017-Mar-20 18:26N 33°45' W 118°11'0 0.0
2017-Mar-20 17:31N 33°45' W 118°11'0 0.0
2017-Mar-20 16:31N 33°45' W 118°11'0 0.0
2017-Mar-20 15:30N 33°45' W 118°11'0 0.0
2017-Mar-20 14:30N 33°45' W 118°11'0 0.0
2017-Mar-20 13:32N 33°45' W 118°11'0 0.2
2017-Mar-20 12:33N 33°45' W 118°11'8 7.7
2017-Mar-20 11:33N 33°37' W 118°10'1111.2
2017-Mar-20 10:33N 33°27' W 118°06'1211.9
2017-Mar-20 09:34N 33°15' W 118°01'1212.2
2017-Mar-20 08:33N 33°04' W 117°56'1615.9
2017-Mar-20 07:33N 32°49' W 117°50'1716.6
2017-Mar-20 06:33N 32°33' W 117°43'1716.7
2017-Mar-20 05:34N 32°18' W 117°37'1615.6
2017-Mar-20 04:33N 32°07' W 117°23'1716.6
2017-Mar-20 03:33N 31°59' W 117°06'25 1.8
2017-Mar-19 14:05N 31°50' W 116°39'4 7.9
2017-Mar-19 13:33N 31°50' W 116°44'7 7.3
2017-Mar-19 12:33N 31°50' W 116°52'7 6.7
2017-Mar-19 11:33N 31°50' W 117°00'6 6.5
2017-Mar-19 10:33N 31°50' W 117°08'7 6.7
2017-Mar-19 09:33N 31°49' W 117°16'7 7.2
2017-Mar-19 08:33N 31°49' W 117°24'7 7.0
2017-Mar-19 07:33N 31°48' W 117°32'8 7.7
2017-Mar-19 06:33N 31°44' W 117°40'8 7.7
2017-Mar-19 05:33N 31°37' W 117°40'7 7.2
2017-Mar-19 04:33N 31°29' W 117°40'7 6.9
2017-Mar-19 03:33N 31°23' W 117°40'6 6.2
2017-Mar-19 02:33N 31°19' W 117°47'7 7.4
2017-Mar-19 01:33N 31°19' W 117°55'7 7.5
2017-Mar-19 00:33N 31°19' W 118°04'7 7.4
2017-Mar-18 23:33N 31°19' W 118°13'7 7.0
2017-Mar-18 22:33N 31°21' W 118°21'7 7.5
2017-Mar-18 21:33N 31°28' W 118°19'8 8.3
2017-Mar-18 20:33N 31°36' W 118°16'8 8.4
2017-Mar-18 19:33N 31°44' W 118°13'  
Track history (hours):
 
Tides and Currents Weather Stations Pressure Air Temp Water Temp Dewpoint Dewpoint Depression Visibility Wind Speed Wind Dir Waves Ship Positions

Inspiration

Operator: Carnival Cruise Lines

Last reported at 2017-Mar-28 19:33 UTC. Time now 2017-Mar-28 19:47 UTC.
Position N 31°34' W 117°48'.

Type: Ship. MMSI: 309484000.

Date/timePositionNaut miles runAvg speedWind from/ knotsBaromVisibWave heightAir tempDewpointWater temp
2017-Mar-28 19:33N 31°34' W 117°48'8 7.5
2017-Mar-28 18:33N 31°38' W 117°40'7 7.3
2017-Mar-28 17:33N 31°42' W 117°33'9 6.9
2017-Mar-28 16:16N 31°47' W 117°25'5 7.2
2017-Mar-28 15:33N 31°52' W 117°25'8 7.7
2017-Mar-28 14:31N 31°60' W 117°28'7 7.5
2017-Mar-28 13:33N 32°07' W 117°30'7 7.2
2017-Mar-28 12:33N 32°14' W 117°33'7 7.3
2017-Mar-28 11:33N 32°21' W 117°36'8 7.6
2017-Mar-28 10:33N 32°28' W 117°39'8 7.6
2017-Mar-28 09:33N 32°35' W 117°42'8 7.9
2017-Mar-28 08:33N 32°42' W 117°46'8 7.8
2017-Mar-28 07:33N 32°49' W 117°49'8 7.6
2017-Mar-28 06:33N 32°56' W 117°53'8 7.8
2017-Mar-28 05:33N 33°04' W 117°56'8 7.7
2017-Mar-28 04:33N 33°10' W 118°00'9 8.9
2017-Mar-28 03:33N 33°18' W 118°05'1111.3
2017-Mar-28 02:33N 33°29' W 118°10'1111.2
2017-Mar-28 01:34N 33°40' W 118°12'5 5.0
2017-Mar-28 00:30N 33°45' W 118°11'0 0.0
2017-Mar-27 23:33N 33°45' W 118°11'0 0.0
2017-Mar-27 22:20N 33°45' W 118°11'0 0.0
2017-Mar-27 21:32N 33°45' W 118°11'0 0.0
2017-Mar-27 20:20N 33°45' W 118°11'0 0.0
2017-Mar-27 18:13N 33°45' W 118°11'0 0.0
2017-Mar-27 13:29N 33°45' W 118°11'0 0.1
2017-Mar-27 12:23N 33°45' W 118°11'5 5.4
2017-Mar-27 11:33N 33°40' W 118°11'9 9.2
2017-Mar-27 10:34N 33°32' W 118°08'1414.1
2017-Mar-27 09:33N 33°18' W 118°02'1616.4
2017-Mar-27 08:33N 33°03' W 117°56'1615.7
2017-Mar-27 07:33N 32°48' W 117°50'1515.0
2017-Mar-27 06:33N 32°34' W 117°44'1515.0
2017-Mar-27 05:33N 32°20' W 117°38'1514.7
2017-Mar-27 04:33N 32°09' W 117°27'22 0.6
2017-Mar-25 15:19N 31°53' W 117°45'6 7.0
2017-Mar-25 14:28N 31°55' W 117°38'6 7.1
2017-Mar-25 13:33N 31°57' W 117°31'6 6.4
2017-Mar-25 12:33N 32°03' W 117°30'7 7.4
2017-Mar-25 11:33N 32°10' W 117°33'7 7.4
2017-Mar-25 10:33N 32°17' W 117°36'8 7.6
2017-Mar-25 09:33N 32°24' W 117°40'8 7.5
2017-Mar-25 08:33N 32°31' W 117°43'1211.5
2017-Mar-25 07:33N 32°41' W 117°48'1111.4
2017-Mar-25 06:33N 32°52' W 117°53'1211.5
2017-Mar-25 05:33N 33°03' W 117°58'1211.6
2017-Mar-25 04:34N 33°13' W 118°03'1211.7
2017-Mar-25 03:33N 33°24' W 118°08'1211.6
2017-Mar-25 02:33N 33°35' W 118°13'9 9.4
2017-Mar-25 01:33N 33°44' W 118°11'1 0.7
2017-Mar-25 00:31N 33°45' W 118°11'0 0.0
2017-Mar-24 23:33N 33°45' W 118°11'0 0.0
2017-Mar-24 22:33N 33°45' W 118°11'0 0.0
2017-Mar-24 21:32N 33°45' W 118°11'0 0.0
2017-Mar-24 20:32N 33°45' W 118°11'0 0.0
2017-Mar-24 19:31N 33°45' W 118°11'0 0.0
2017-Mar-24 18:28N 33°45' W 118°11'0 0.0
2017-Mar-24 17:31N 33°45' W 118°11'0 0.0
2017-Mar-24 16:33N 33°45' W 118°11'0 0.0
2017-Mar-24 14:14N 33°45' W 118°11'0 0.0
2017-Mar-24 13:32N 33°45' W 118°11'0 0.3
2017-Mar-24 12:33N 33°45' W 118°11'8 7.8
2017-Mar-24 11:33N 33°37' W 118°10'1212.0
2017-Mar-24 10:33N 33°26' W 118°05'1312.7
2017-Mar-24 09:33N 33°14' W 118°01'1212.4
2017-Mar-24 08:33N 33°02' W 117°55'1615.8
2017-Mar-24 07:33N 32°47' W 117°49'1615.7
2017-Mar-24 06:33N 32°32' W 117°43'1515.4
2017-Mar-24 05:34N 32°18' W 117°37'1514.8
2017-Mar-24 04:33N 32°08' W 117°24'5 0.3
2017-Mar-23 09:33N 32°04' W 117°19'9 8.6
2017-Mar-23 08:33N 32°08' W 117°29'8 8.3
2017-Mar-23 07:33N 32°13' W 117°36'9 8.6
2017-Mar-23 06:33N 32°21' W 117°40'9 8.7
2017-Mar-23 05:33N 32°29' W 117°45'9 8.8
2017-Mar-23 04:33N 32°37' W 117°50'1010.3
2017-Mar-23 03:34N 32°46' W 117°55'1110.6
2017-Mar-23 02:33N 32°55' W 118°01'1110.6
2017-Mar-23 01:33N 33°05' W 118°06'1110.9
2017-Mar-23 00:33N 33°15' W 118°12'9 8.2
2017-Mar-22 23:31N 33°21' W 118°19'0 0.1
2017-Mar-22 22:31N 33°21' W 118°19'0 0.1
2017-Mar-22 21:30N 33°21' W 118°19'0 0.0
2017-Mar-22 20:33N 33°21' W 118°19'0 0.0
2017-Mar-22 19:24N 33°21' W 118°19'0 0.1
2017-Mar-22 18:29N 33°21' W 118°19'0 0.0
2017-Mar-22 17:23N 33°21' W 118°19'0 0.0
2017-Mar-22 15:22N 33°21' W 118°19'0 0.0
2017-Mar-22 14:33N 33°21' W 118°19'3 3.4
2017-Mar-22 13:33N 33°18' W 118°17'8 7.7
2017-Mar-22 12:33N 33°11' W 118°16'7 7.0
2017-Mar-22 11:33N 33°04' W 118°13'7 7.2
2017-Mar-22 10:33N 32°58' W 118°08'8 7.6
2017-Mar-22 09:33N 32°52' W 118°02'7 7.4
2017-Mar-22 08:33N 32°46' W 117°57'7 7.4
2017-Mar-22 07:33N 32°41' W 117°52'8 7.8
2017-Mar-22 06:33N 32°34' W 117°47'8 7.7
2017-Mar-22 05:33N 32°27' W 117°44'8 7.8
2017-Mar-22 04:33N 32°19' W 117°41'8 7.7
2017-Mar-22 03:33N 32°12' W 117°37'7 7.5
2017-Mar-22 02:33N 32°05' W 117°34'7 7.3
2017-Mar-22 01:33N 31°58' W 117°31'7 6.5
2017-Mar-22 00:33N 31°54' W 117°37'7 7.4
2017-Mar-21 23:33N 31°52' W 117°45'9 9.1
2017-Mar-21 22:32N 31°49' W 117°56'8 8.0
2017-Mar-21 21:33N 31°47' W 118°05'6 6.5
2017-Mar-21 20:33N 31°42' W 118°10'8 7.6
2017-Mar-21 19:33N 31°38' W 118°02'8 7.9
2017-Mar-21 18:33N 31°34' W 117°54'14 6.7
2017-Mar-21 16:32N 31°39' W 117°39'21 7.0
2017-Mar-21 13:33N 31°56' W 117°27'8 7.7
2017-Mar-21 12:33N 32°04' W 117°29'8 7.9
2017-Mar-21 11:33N 32°11' W 117°32'8 7.6
2017-Mar-21 10:33N 32°19' W 117°35'8 7.7
2017-Mar-21 09:33N 32°26' W 117°38'9 9.2
2017-Mar-21 08:33N 32°34' W 117°42'1110.8
2017-Mar-21 07:33N 32°44' W 117°47'1110.9
2017-Mar-21 06:33N 32°55' W 117°52'1111.0
2017-Mar-21 05:33N 33°05' W 117°57'1110.9
2017-Mar-21 04:34N 33°14' W 118°03'1110.5
2017-Mar-21 03:33N 33°24' W 118°08'1110.9
2017-Mar-21 02:33N 33°34' W 118°13'9 9.0
2017-Mar-21 01:33N 33°43' W 118°11'2 1.9
2017-Mar-21 00:28N 33°45' W 118°11'0 0.0
2017-Mar-20 23:16N 33°45' W 118°11'0 0.0
2017-Mar-20 21:33N 33°45' W 118°11'0 0.0
2017-Mar-20 20:27N 33°45' W 118°11'0 0.0
2017-Mar-20 19:08N 33°45' W 118°11'0 0.0
2017-Mar-20 18:26N 33°45' W 118°11'0 0.0
2017-Mar-20 17:31N 33°45' W 118°11'0 0.0
2017-Mar-20 16:31N 33°45' W 118°11'0 0.0
2017-Mar-20 15:30N 33°45' W 118°11'0 0.0
2017-Mar-20 14:30N 33°45' W 118°11'0 0.0
2017-Mar-20 13:32N 33°45' W 118°11'0 0.2
2017-Mar-20 12:33N 33°45' W 118°11'8 7.7
2017-Mar-20 11:33N 33°37' W 118°10'1111.2
2017-Mar-20 10:33N 33°27' W 118°06'1211.9
2017-Mar-20 09:34N 33°15' W 118°01'1212.2
2017-Mar-20 08:33N 33°04' W 117°56'1615.9
2017-Mar-20 07:33N 32°49' W 117°50'1716.6
2017-Mar-20 06:33N 32°33' W 117°43'1716.7
2017-Mar-20 05:34N 32°18' W 117°37'1615.6
2017-Mar-20 04:33N 32°07' W 117°23'1716.6
2017-Mar-20 03:33N 31°59' W 117°06'25 1.8
2017-Mar-19 14:05N 31°50' W 116°39'4 7.9
2017-Mar-19 13:33N 31°50' W 116°44'7 7.3
2017-Mar-19 12:33N 31°50' W 116°52'7 6.7
2017-Mar-19 11:33N 31°50' W 117°00'6 6.5
2017-Mar-19 10:33N 31°50' W 117°08'7 6.7
2017-Mar-19 09:33N 31°49' W 117°16'7 7.2
2017-Mar-19 08:33N 31°49' W 117°24'7 7.0
2017-Mar-19 07:33N 31°48' W 117°32'8 7.7
2017-Mar-19 06:33N 31°44' W 117°40'8 7.7
2017-Mar-19 05:33N 31°37' W 117°40'7 7.2
2017-Mar-19 04:33N 31°29' W 117°40'7 6.9
2017-Mar-19 03:33N 31°23' W 117°40'6 6.2
2017-Mar-19 02:33N 31°19' W 117°47'7 7.4
2017-Mar-19 01:33N 31°19' W 117°55'7 7.5
2017-Mar-19 00:33N 31°19' W 118°04'7 7.4
2017-Mar-18 23:33N 31°19' W 118°13'7 7.0
2017-Mar-18 22:33N 31°21' W 118°21'7 7.5
2017-Mar-18 21:33N 31°28' W 118°19'8 8.3
2017-Mar-18 20:33N 31°36' W 118°16'8 8.4
2017-Mar-18 19:33N 31°44' W 118°13'  

Dump ship's entire track history